Adam Nikolic

Главный скаут - Haladas
25 Ноя 2027
Четверг
Продолжить

Характер

Адаптивность (19) Амбиции (5) Скандальность (3) Верность (14) Стрессоустойчивость (15) Профессионализм (11) Благородство (10) Темперамент (8)

Профиль

Стиль управления Демократичный
Лицензия Национальная A
Решительность 5
Управление людьми 3
Мотивация 6
Дисциплина 8
Удовлетворённость
100%
Усталость
0%
Должность Главный скаут
Зарплата 60.9K в нед.
Контракт 14.03.2029

Производительность

Поведение Хорошее
Эффективность тренировок
30%
Развитие игроков
20%
Профилактика травм
50%
Тактическая реализация
30%

Недавние события

Участвовал в селекционном совещании только что
Рекомендовал трансферную цель только что
Участвовал в селекционном совещании 7 дн. назад
Рекомендовал трансферную цель 7 дн. назад
Рекомендовал трансферную цель 7 дн. назад
Рекомендовал трансферную цель 7 дн. назад
Рекомендовал трансферную цель 14 дн. назад
Рекомендовал трансферную цель 14 дн. назад

Текущее наблюдение

99
Игрок Клуб Статус Способность Уверенность Наблюдений Последнее наблюдение Последний голос
Shayne Lavery Cambridge United Активный 99 / 109 40% 6 26.07.2027 -
Bismark Asante Ashanti Gold Активный 83 / 76 40% 5 26.07.2027 -
Emanuele Schimmenti Potenza Активный 122 / 114 40% 1 26.07.2027 -
Abu Kamara Portsmouth Активный 107 / 105 40% 2 14.06.2027 -
Lamine Guèye Barrow AFC Активный 129 / 103 40% 2 14.06.2027 -
Bojan Radulović Huddersfield Town Активный 108 / 128 40% 1 14.06.2027 -
Goga Kobiashvili Veres Переговоры 92 / 92 66% 1 01.06.2027 За
Christian Saydee Wigan Athletic Активный 120 / 106 40% 3 31.05.2027 -
Lee Bonis Chesterfield Активный 99 / 81 40% 2 31.05.2027 -
Jayden Wareham Barnet Активный 89 / 109 40% 1 31.05.2027 -
Yousef Salech Cardiff City Активный 120 / 116 40% 2 30.05.2027 -
Tyreece Campbell Charlton Athletic Активный 130 / 108 40% 2 30.05.2027 -
Jaze Kabia Grimsby Town Активный 108 / 78 40% 2 28.05.2027 -
Silvio Merkaj Vicenza Активный 118 / 127 40% 2 26.05.2027 -
Marezi Portsmouth Активный 120 / 126 40% 3 26.05.2027 -
Lewis Morgan SuperSport United Активный 124 / 112 40% 1 26.05.2027 -
Sam Nombe Milton Keynes Dons Активный 98 / 94 40% 1 25.05.2027 -
Dale Taylor Blackpool Активный 115 / 98 40% 1 25.05.2027 -
Dany Mota Monza Упущен 140 / 121 40% 1 23.05.2027 -
Elijah Adebayo Luton Town Активный 114 / 108 40% 1 23.05.2027 -
Francesco Petito Dolomiti Bellunesi Активный 90 / 88 40% 1 22.05.2027 -
Iwan Morgan Grimsby Town Активный 120 / 136 40% 1 22.05.2027 -
Louis Appéré Cambridge United Активный 89 / 83 40% 1 22.05.2027 -
Robert Mizo Ashanti Gold Активный 103 / 112 40% 5 19.05.2027 -
Dom Ballard Leyton Orient Активный 115 / 104 40% 1 17.05.2027 -
Edarlyn Reyes Arsenal Tula Активный 105 / 99 40% 4 16.05.2027 -
Themba Ngcobo SuperSport United Активный 128 / 114 40% 5 16.05.2027 -
Moussa Dembélé CR Belouizdad Упущен 140 / 129 40% 4 15.05.2027 -
Mandla Mahlangu Ajax Cape Town Активный 99 / 121 40% 2 15.05.2027 -
Kwame Opoku Asante Kotoko Активный 109 / 80 40% 3 14.05.2027 -
Evidence Makgopa Orlando Pirates Активный 116 / 99 40% 6 10.05.2027 -
Marcus Browne AFC Wimbledon Активный 102 / 92 40% 1 10.05.2027 -
Promise Omochere Bristol Rovers Активный 89 / 75 40% 1 09.05.2027 -
Lorent Tolaj Plymouth Argyle Активный 117 / 120 40% 1 09.05.2027 -
Simone Mazzocchi Cosenza Активный 112 / 118 40% 3 07.05.2027 -
Mees Rijks Bristol Rovers Активный 121 / 99 40% 1 07.05.2027 -
Daniel Udoh Salford City Активный 96 / 92 40% 1 06.05.2027 -
Giacomo Zecca Torres Активный 95 / 96 40% 2 04.05.2027 -
Stephen Humphrys Bradford City Активный 106 / 120 40% 1 04.05.2027 -
Camillo Tavernelli Arezzo Активный 103 / 104 40% 2 01.05.2027 -
Oto John ES Mostaganem Активный 108 / 107 40% 6 30.04.2027 -
Filippo Distefano Empoli Активный 104 / 136 40% 2 30.04.2027 -
Stiven Shpendi Empoli Активный 109 / 108 40% 2 29.04.2027 -
Younes Ebnoutalib Eintracht Frankfurt Активный 136 / 147 40% 1 26.04.2027 -
Mohammed Yahaya Great Olympics Активный 73 / 95 40% 2 23.04.2027 -
Giuseppe Di Serio Spezia Активный 127 / 103 40% 1 23.04.2027 -
Berna CSKA 1948 Активный 120 / 104 40% 2 17.04.2027 -
Federico Bonazzoli Cremonese Активный 127 / 140 40% 1 16.04.2027 -
Martin Sekulić Ural Активный 109 / 118 40% 2 15.04.2027 -
Mattia Iori Lumezzane Активный 91 / 102 40% 1 15.04.2027 -
Jacopo Desogus AlbinoLeffe Активный 95 / 89 40% 1 15.04.2027 -
Marco Tumminello Benevento Активный 106 / 102 40% 1 14.04.2027 -
Kamran Aliev SKA Khabarovsk Активный 100 / 101 40% 2 13.04.2027 -
Fortune Bassey Djoliba Активный 101 / 103 40% 3 13.04.2027 -
Marco Da Graca Novara Активный 93 / 110 40% 1 13.04.2027 -
Dmitry Tsypchenko Torpedo Moscow Активный 102 / 119 40% 1 10.04.2027 -
Krisztofer Horváth Ujpest Активный 108 / 121 40% 3 09.04.2027 -
Lorenzo Di Stefano Torres Активный 103 / 116 40% 1 08.04.2027 -
Matteo Rover Reggiana Активный 135 / 138 40% 1 07.04.2027 -
Jonathan Gyan Liberty Professionals Активный 91 / 101 40% 3 05.04.2027 -
Ekain Orobengoa Real Sociedad Активный 94 / 106 40% 1 05.04.2027 -
Mattia Bortolussi Padova Активный 136 / 104 40% 1 05.04.2027 -
Yaw Mensah Hasaacas Активный 86 / 85 40% 3 03.04.2027 -
Mustapha Sangaré Levski Активный 120 / 129 40% 1 03.04.2027 -
Anderson Pafos Активный 107 / 91 40% 1 02.04.2027 -
Gladson Paintsil Wa All Stars Активный 98 / 109 40% 3 30.03.2027 -
Milán Tóth Vasas Активный 102 / 93 40% 3 27.03.2027 -
Abdelillah Barkat MC El Bayadh Активный 89 / 102 40% 1 26.03.2027 -
Pedro Marques Apollon Активный 106 / 133 40% 3 23.03.2027 -
Friday Ubong Ashanti Gold Активный 103 / 108 40% 1 21.03.2027 -
Dániel Lukács Puskas Akademia Активный 112 / 103 40% 1 20.03.2027 -
Billal Messaoudi JS Kabylie Активный 127 / 108 40% 1 19.03.2027 -
Isaac Essien WAFA Активный 102 / 80 40% 6 17.03.2027 -
Róbert Polievka MTK Budapest Активный 111 / 103 40% 3 15.03.2027 -
Samuel Kalu Botev Plovdiv Активный 120 / 112 40% 1 13.03.2027 -
Daouda Sidibé Aduana Stars Активный 83 / 91 40% 1 12.03.2027 -
Juan Cejas Ethnikos Achnas Активный 116 / 114 40% 2 11.03.2027 -
Slobodan Tedić Akron Активный 104 / 102 40% 2 02.03.2027 -
Everton Bala Levski Активный 132 / 119 40% 1 02.03.2027 -
François Kamano Sochi Активный 118 / 116 40% 1 28.02.2027 -
Etiosa Ighodaro Kaizer Chiefs Активный 124 / 105 40% 3 27.02.2027 -
Robert Murić Floriana Активный 100 / 116 40% 1 27.02.2027 -
José Martínes CSKA 1948 Активный 115 / 118 40% 1 26.02.2027 -
Stanislav Ivanov Arda Активный 113 / 104 40% 1 22.02.2027 -
Dávid Zimonyi Fehervar Активный 102 / 97 40% 1 21.02.2027 -
Albert Rusnak FK Senica Активный 101 / 90 40% 1 19.02.2027 -
Ammar Ramadan DAC Dunajska Streda Активный 132 / 131 40% 1 18.02.2027 -
Aaron Drinan Swindon Town Активный 95 / 92 40% 2 17.02.2027 -
Joel Fameyeh Puskas Akademia Активный 114 / 121 40% 1 17.02.2027 -
Ádin Molnár MTK Budapest Активный 118 / 125 40% 1 13.02.2027 -
Kenan Dervišagić Floriana Активный 89 / 104 40% 3 12.02.2027 -
Danil Karpov KAMAZ Активный 83 / 97 40% 1 05.02.2027 -
Jere Vrcić Birkirkara Активный 89 / 111 40% 1 05.02.2027 -
Dean Erasmus Platinum Stars Активный 80 / 109 40% 1 01.02.2027 -
Nicolás Andereggen Ethnikos Achnas Активный 121 / 127 40% 1 25.01.2027 -
András Radó Vasas Активный 95 / 117 40% 1 26.08.2026 -
Roland Orján Puskas Akademia Активный 70 / 73 62% 1 24.08.2026 За
Bálint Geiger Ujpest Активный 99 / 105 62% 1 10.08.2026 За
Ignacio Giacinti Patronato Активный 86 / 92 40% 1 10.08.2026 -